Lap times 1st practice 2013 Malaysian F1 Grand Prix

Red Bull RB9 driven by Mark Webber

Event: Malaysian F1 Grand Prix
Track: Sepang Circuit

Weather: Dry
Track temperature: 37°C
Air temperature: 33°C
Wind Speed: 2.1 mps
Wind direction: West
Air Pressure: 1014.6 mBar
Humidity: 68%

Mark Webber topped the time table this 1st practice for the 2013 Malaysian F1 GP.

FP1 Lap Times 2013 Malaysian F1 GP

PosNoDriverTeamLap Time1st GapLaps
12Mark WebberRed Bull1:36,93515
27Kimi RäikkönenLotus F11:37,0030,06815
31Sebastian VettelRed Bull1:37,1040,16921
43Fernando AlonsoFerrari1:37,3190,38413
59Nico RosbergMercedes1:37,5880,65319
615Adrian SutilForce India1:37,7690,83417
74Felipe MassaFerrari1:37,7710,83615
814Paul di RestaForce India1:37,7730,83815
910Lewis HamiltonMercedes1:37,8400,90518
108Romain GrosjeanLotus F11:37,9150,98017
115Jenson ButtonMcLaren1:38,1731,23816
1216Pastor MaldonadoWilliams1:38,6731,73816
136Sergio PérezMcLaren1:38,8301,89517
1411Nico HülkenbergSauber1:39,0542,11917
1512Esteban GutierrezSauber1:39,2042,26916
1617Valtteri BottasWilliams1:39,2082,27319
1718Jean-Eric VergneToro Rosso1:39,2842,34917
1819Daniel RicciardoToro Rosso1:39,5672,63216
1921Giedo van der GardeCaterham1:40,7283,79317
2022Jules BianchiManor1:40,9964,06114
2120Charles PicCaterham1:41,1634,22818
2223Max ChiltonManor1:41,5134,57814


Check out more items on this website about:

What's your F1 fan opinion?

Your email address will not be published. Required fields are marked *

Please follow our commenting guidelines.